Redlynch, Queensland

2:11 AM AEST on February 10, 2016 (GMT +1000)
IQLDREDL7 | | Change Station
CLOSE
Current Station
Personal Weather Station
Location: Redlynch, QLD
Elevation: 164 ft
Nearby Weather Stations

Elev 164 ft 16.89 °S, 145.69 °E | Updated 25 seconds ago

Scattered Clouds
Scattered Clouds
79.3 °F
Feels Like 80 °F
N
1.6
Wind Variable Wind from SW
Gusts 3.1 mph

Today
High -- | Low -- °F
--% Chance of Precip.
Yesterday
High -- | Low -- °F
Precip. -- in
Pressure 29.74 in
Visibility 6.2 miles
Clouds Few 2300 ft
Scattered Clouds 14000 ft
Heat Index 80 °F
Dew Point 54 °F
Humidity 42%
Rainfall 0.00 in
Snow Depth Not available.
6:09 AM 6:53 PM
New Moon, 2% visible
METAR YBCS 091600Z 15006KT 9999 FEW023 SCT140 26/24 Q1007 NOSIG
Pressure 29.74 in
Visibility 6.2 miles
Clouds Few 2300 ft
Scattered Clouds 14000 ft
Heat Index 80 °F
Dew Point 54 °F
Humidity 42%
Rainfall 0.00 in
Snow Depth Not available.
6:09 AM 6:53 PM
New Moon, 2% visible
METAR YBCS 091600Z 15006KT 9999 FEW023 SCT140 26/24 Q1007 NOSIG

10-Day Weather Forecast

Almanac

Astronomy

Feb. 10, 2016 Rise Set
Actual Time
Civil Twilight
Nautical Twilight
Astronomical Twilight
Moon
Length of Visible Light
Length of Day
Tomorrow will be .
, % of the Moon is Illuminated

Today's Extremes

Country Highs Country Lows

Community

WunderPhotos

Upload Photos

1,891,629 photos uploaded!

WunderBlog® & News

Nearby

Air Quality

  Air Quality AQ Index Pollutant
Not available.

Snow Depth

Station Depth Elevation

Earthquake Activity

City Distance Mag. Time & Date
Minimum magnitude displayed is 2.5.

Coastal Water Temperatures

Place Temperature

Stations

Nearby Weather Stations

Station Location Temp. Windchill Dew Point Humidity Wind Precip. Elev Updated Type